sensor_id;sensor_type;location;lat;lon;timestamp;P1;durP1;ratioP1;P2;durP2;ratioP2
51838;SDS011;37886;53.174;6.368;2023-07-08T00:00:52;369.98;;;337.27;;
51838;SDS011;37886;53.174;6.368;2023-07-08T00:03:18;366.10;;;335.83;;
51838;SDS011;37886;53.174;6.368;2023-07-08T00:05:48;352.15;;;322.50;;
51838;SDS011;37886;53.174;6.368;2023-07-08T00:08:19;359.20;;;330.27;;
51838;SDS011;37886;53.174;6.368;2023-07-08T00:10:46;367.50;;;337.42;;
51838;SDS011;37886;53.174;6.368;2023-07-08T00:13:12;356.02;;;327.92;;
51838;SDS011;37886;53.174;6.368;2023-07-08T00:15:39;392.52;;;362.83;;
51838;SDS011;37886;53.174;6.368;2023-07-08T00:18:10;392.65;;;362.55;;
51838;SDS011;37886;53.174;6.368;2023-07-08T00:20:39;377.98;;;348.70;;
51838;SDS011;37886;53.174;6.368;2023-07-08T00:23:08;391.67;;;362.45;;
51838;SDS011;37886;53.174;6.368;2023-07-08T00:25:34;393.58;;;364.02;;
51838;SDS011;37886;53.174;6.368;2023-07-08T00:28:00;380.98;;;352.55;;
51838;SDS011;37886;53.174;6.368;2023-07-08T00:30:28;302.85;;;281.65;;
51838;SDS011;37886;53.174;6.368;2023-07-08T00:32:56;262.52;;;243.93;;
51838;SDS011;37886;53.174;6.368;2023-07-08T00:35:24;309.20;;;287.35;;
51838;SDS011;37886;53.174;6.368;2023-07-08T00:37:59;279.40;;;258.98;;
51838;SDS011;37886;53.174;6.368;2023-07-08T00:40:29;271.73;;;251.98;;
51838;SDS011;37886;53.174;6.368;2023-07-08T00:42:56;268.00;;;249.05;;
51838;SDS011;37886;53.174;6.368;2023-07-08T00:45:31;290.77;;;269.85;;
51838;SDS011;37886;53.174;6.368;2023-07-08T00:48:11;257.80;;;239.02;;
51838;SDS011;37886;53.174;6.368;2023-07-08T00:50:37;265.00;;;245.57;;
51838;SDS011;37886;53.174;6.368;2023-07-08T00:58:55;247.23;;;229.43;;
51838;SDS011;37886;53.174;6.368;2023-07-08T01:01:44;270.55;;;251.10;;
51838;SDS011;37886;53.174;6.368;2023-07-08T01:04:23;242.27;;;224.27;;
51838;SDS011;37886;53.174;6.368;2023-07-08T01:06:54;283.20;;;262.50;;
51838;SDS011;37886;53.174;6.368;2023-07-08T01:09:27;269.45;;;249.68;;
51838;SDS011;37886;53.174;6.368;2023-07-08T01:11:57;259.05;;;240.43;;
51838;SDS011;37886;53.174;6.368;2023-07-08T01:14:26;261.90;;;242.27;;
51838;SDS011;37886;53.174;6.368;2023-07-08T01:16:56;247.77;;;230.00;;
51838;SDS011;37886;53.174;6.368;2023-07-08T01:19:22;256.85;;;238.05;;
51838;SDS011;37886;53.174;6.368;2023-07-08T01:24:27;231.73;;;214.77;;
51838;SDS011;37886;53.174;6.368;2023-07-08T01:26:55;265.02;;;245.75;;
51838;SDS011;37886;53.174;6.368;2023-07-08T01:29:21;302.63;;;280.80;;
51838;SDS011;37886;53.174;6.368;2023-07-08T01:31:48;230.50;;;213.50;;
51838;SDS011;37886;53.174;6.368;2023-07-08T01:34:17;260.98;;;241.65;;
51838;SDS011;37886;53.174;6.368;2023-07-08T01:36:51;236.70;;;219.57;;
51838;SDS011;37886;53.174;6.368;2023-07-08T01:39:21;265.55;;;246.35;;
51838;SDS011;37886;53.174;6.368;2023-07-08T01:41:48;235.50;;;217.52;;
51838;SDS011;37886;53.174;6.368;2023-07-08T01:44:23;233.75;;;216.32;;
51838;SDS011;37886;53.174;6.368;2023-07-08T01:46:54;258.70;;;239.88;;
51838;SDS011;37886;53.174;6.368;2023-07-08T01:49:23;207.48;;;191.70;;
51838;SDS011;37886;53.174;6.368;2023-07-08T01:51:49;214.18;;;197.93;;
51838;SDS011;37886;53.174;6.368;2023-07-08T01:54:15;262.33;;;243.38;;
51838;SDS011;37886;53.174;6.368;2023-07-08T01:56:41;245.95;;;227.73;;
51838;SDS011;37886;53.174;6.368;2023-07-08T01:59:07;244.73;;;226.45;;
51838;SDS011;37886;53.174;6.368;2023-07-08T02:01:33;215.80;;;199.43;;
51838;SDS011;37886;53.174;6.368;2023-07-08T02:03:58;241.48;;;223.13;;
51838;SDS011;37886;53.174;6.368;2023-07-08T02:06:24;196.43;;;181.50;;
51838;SDS011;37886;53.174;6.368;2023-07-08T02:08:50;238.20;;;220.32;;
51838;SDS011;37886;53.174;6.368;2023-07-08T02:11:16;232.10;;;214.77;;
51838;SDS011;37886;53.174;6.368;2023-07-08T02:13:42;248.95;;;230.27;;
51838;SDS011;37886;53.174;6.368;2023-07-08T02:16:08;274.73;;;254.57;;
51838;SDS011;37886;53.174;6.368;2023-07-08T02:18:33;260.17;;;240.68;;
51838;SDS011;37886;53.174;6.368;2023-07-08T02:20:59;276.48;;;256.25;;
51838;SDS011;37886;53.174;6.368;2023-07-08T02:23:25;250.35;;;231.48;;
51838;SDS011;37886;53.174;6.368;2023-07-08T02:25:52;236.45;;;218.93;;
51838;SDS011;37886;53.174;6.368;2023-07-08T02:28:19;247.57;;;229.48;;
51838;SDS011;37886;53.174;6.368;2023-07-08T02:30:45;275.55;;;255.10;;
51838;SDS011;37886;53.174;6.368;2023-07-08T02:33:13;249.40;;;230.88;;
51838;SDS011;37886;53.174;6.368;2023-07-08T02:35:42;222.13;;;205.13;;
51838;SDS011;37886;53.174;6.368;2023-07-08T02:38:09;206.43;;;190.50;;
51838;SDS011;37886;53.174;6.368;2023-07-08T02:40:35;219.35;;;202.02;;
51838;SDS011;37886;53.174;6.368;2023-07-08T02:43:00;262.60;;;243.10;;
51838;SDS011;37886;53.174;6.368;2023-07-08T02:45:26;248.30;;;229.35;;
51838;SDS011;37886;53.174;6.368;2023-07-08T02:47:52;220.68;;;202.75;;
51838;SDS011;37886;53.174;6.368;2023-07-08T02:50:18;209.13;;;192.70;;
51838;SDS011;37886;53.174;6.368;2023-07-08T02:52:44;211.95;;;195.60;;
51838;SDS011;37886;53.174;6.368;2023-07-08T02:55:09;208.65;;;192.52;;
51838;SDS011;37886;53.174;6.368;2023-07-08T02:57:35;242.05;;;223.25;;
51838;SDS011;37886;53.174;6.368;2023-07-08T03:00:01;254.88;;;235.77;;
51838;SDS011;37886;53.174;6.368;2023-07-08T03:02:29;253.02;;;233.50;;
51838;SDS011;37886;53.174;6.368;2023-07-08T03:04:55;198.07;;;182.00;;
51838;SDS011;37886;53.174;6.368;2023-07-08T03:07:24;241.88;;;223.82;;
51838;SDS011;37886;53.174;6.368;2023-07-08T03:09:50;228.75;;;210.85;;
51838;SDS011;37886;53.174;6.368;2023-07-08T03:12:15;217.15;;;200.27;;
51838;SDS011;37886;53.174;6.368;2023-07-08T03:14:41;245.68;;;227.40;;
51838;SDS011;37886;53.174;6.368;2023-07-08T03:17:07;239.65;;;221.13;;
51838;SDS011;37886;53.174;6.368;2023-07-08T03:19:32;220.73;;;203.02;;
51838;SDS011;37886;53.174;6.368;2023-07-08T03:21:58;249.27;;;230.18;;
51838;SDS011;37886;53.174;6.368;2023-07-08T03:24:24;209.57;;;193.40;;
51838;SDS011;37886;53.174;6.368;2023-07-08T03:26:49;238.75;;;220.15;;
51838;SDS011;37886;53.174;6.368;2023-07-08T03:29:19;196.40;;;181.18;;
51838;SDS011;37886;53.174;6.368;2023-07-08T03:31:45;241.00;;;222.27;;
51838;SDS011;37886;53.174;6.368;2023-07-08T03:34:11;238.02;;;219.27;;
51838;SDS011;37886;53.174;6.368;2023-07-08T03:36:48;232.50;;;213.93;;
51838;SDS011;37886;53.174;6.368;2023-07-08T03:39:19;215.93;;;199.18;;
51838;SDS011;37886;53.174;6.368;2023-07-08T03:41:47;219.77;;;202.98;;
51838;SDS011;37886;53.174;6.368;2023-07-08T03:44:14;209.88;;;193.60;;
51838;SDS011;37886;53.174;6.368;2023-07-08T03:46:43;234.18;;;215.98;;
51838;SDS011;37886;53.174;6.368;2023-07-08T03:49:10;268.92;;;248.02;;
51838;SDS011;37886;53.174;6.368;2023-07-08T03:51:38;252.50;;;233.15;;
51838;SDS011;37886;53.174;6.368;2023-07-08T03:54:05;224.82;;;207.40;;
51838;SDS011;37886;53.174;6.368;2023-07-08T03:56:34;212.07;;;195.65;;
51838;SDS011;37886;53.174;6.368;2023-07-08T03:59:00;279.98;;;258.83;;
51838;SDS011;37886;53.174;6.368;2023-07-08T04:01:26;224.10;;;206.73;;
51838;SDS011;37886;53.174;6.368;2023-07-08T04:03:52;245.43;;;225.98;;
51838;SDS011;37886;53.174;6.368;2023-07-08T04:06:20;246.13;;;226.82;;
51838;SDS011;37886;53.174;6.368;2023-07-08T04:08:46;237.85;;;219.52;;
51838;SDS011;37886;53.174;6.368;2023-07-08T04:11:12;245.30;;;226.02;;
51838;SDS011;37886;53.174;6.368;2023-07-08T04:13:40;241.02;;;222.60;;
51838;SDS011;37886;53.174;6.368;2023-07-08T04:16:06;261.35;;;241.27;;
51838;SDS011;37886;53.174;6.368;2023-07-08T04:18:33;260.90;;;240.50;;
51838;SDS011;37886;53.174;6.368;2023-07-08T04:20:59;222.82;;;206.18;;
51838;SDS011;37886;53.174;6.368;2023-07-08T04:23:25;226.05;;;208.52;;
51838;SDS011;37886;53.174;6.368;2023-07-08T04:25:52;225.18;;;207.10;;
51838;SDS011;37886;53.174;6.368;2023-07-08T04:28:20;251.68;;;232.77;;
51838;SDS011;37886;53.174;6.368;2023-07-08T04:30:47;259.35;;;239.50;;
51838;SDS011;37886;53.174;6.368;2023-07-08T04:33:13;252.70;;;232.75;;
51838;SDS011;37886;53.174;6.368;2023-07-08T04:35:40;229.88;;;212.48;;
51838;SDS011;37886;53.174;6.368;2023-07-08T04:38:10;242.32;;;222.90;;
51838;SDS011;37886;53.174;6.368;2023-07-08T04:40:51;231.82;;;213.77;;
51838;SDS011;37886;53.174;6.368;2023-07-08T04:43:18;217.60;;;200.80;;
51838;SDS011;37886;53.174;6.368;2023-07-08T04:45:45;233.57;;;215.32;;
51838;SDS011;37886;53.174;6.368;2023-07-08T04:48:16;265.55;;;245.90;;
51838;SDS011;37886;53.174;6.368;2023-07-08T04:50:46;229.50;;;211.95;;
51838;SDS011;37886;53.174;6.368;2023-07-08T04:53:14;265.80;;;245.65;;
51838;SDS011;37886;53.174;6.368;2023-07-08T04:55:41;253.35;;;233.73;;
51838;SDS011;37886;53.174;6.368;2023-07-08T04:58:10;229.63;;;212.02;;
51838;SDS011;37886;53.174;6.368;2023-07-08T05:00:36;292.70;;;271.15;;
51838;SDS011;37886;53.174;6.368;2023-07-08T05:03:02;259.33;;;239.70;;
51838;SDS011;37886;53.174;6.368;2023-07-08T05:05:28;305.20;;;281.90;;
51838;SDS011;37886;53.174;6.368;2023-07-08T05:07:53;291.77;;;269.77;;
51838;SDS011;37886;53.174;6.368;2023-07-08T05:10:19;268.73;;;248.35;;
51838;SDS011;37886;53.174;6.368;2023-07-08T05:12:45;264.20;;;244.95;;
51838;SDS011;37886;53.174;6.368;2023-07-08T05:15:13;267.90;;;248.30;;
51838;SDS011;37886;53.174;6.368;2023-07-08T05:17:39;268.52;;;248.95;;
51838;SDS011;37886;53.174;6.368;2023-07-08T05:20:07;282.90;;;261.60;;
51838;SDS011;37886;53.174;6.368;2023-07-08T05:22:34;286.88;;;264.63;;
51838;SDS011;37886;53.174;6.368;2023-07-08T05:25:00;286.83;;;265.98;;
51838;SDS011;37886;53.174;6.368;2023-07-08T05:27:26;271.45;;;251.30;;
51838;SDS011;37886;53.174;6.368;2023-07-08T05:29:52;270.58;;;250.88;;
51838;SDS011;37886;53.174;6.368;2023-07-08T05:32:18;253.57;;;234.95;;
51838;SDS011;37886;53.174;6.368;2023-07-08T05:34:45;259.50;;;240.98;;
51838;SDS011;37886;53.174;6.368;2023-07-08T05:37:11;282.52;;;262.60;;
51838;SDS011;37886;53.174;6.368;2023-07-08T05:39:38;264.20;;;244.88;;
51838;SDS011;37886;53.174;6.368;2023-07-08T05:42:03;273.48;;;254.18;;
51838;SDS011;37886;53.174;6.368;2023-07-08T05:44:29;240.23;;;222.90;;
51838;SDS011;37886;53.174;6.368;2023-07-08T05:46:55;284.48;;;264.45;;
51838;SDS011;37886;53.174;6.368;2023-07-08T05:49:21;257.10;;;239.00;;
51838;SDS011;37886;53.174;6.368;2023-07-08T05:51:46;230.18;;;213.70;;
51838;SDS011;37886;53.174;6.368;2023-07-08T05:54:12;295.13;;;274.52;;
51838;SDS011;37886;53.174;6.368;2023-07-08T05:56:39;265.17;;;246.05;;
51838;SDS011;37886;53.174;6.368;2023-07-08T05:59:05;259.33;;;240.93;;
51838;SDS011;37886;53.174;6.368;2023-07-08T06:01:30;271.88;;;252.73;;
51838;SDS011;37886;53.174;6.368;2023-07-08T06:03:56;248.75;;;230.98;;
51838;SDS011;37886;53.174;6.368;2023-07-08T06:06:26;291.05;;;270.77;;
51838;SDS011;37886;53.174;6.368;2023-07-08T06:08:52;279.92;;;260.75;;
51838;SDS011;37886;53.174;6.368;2023-07-08T06:11:18;269.77;;;251.43;;
51838;SDS011;37886;53.174;6.368;2023-07-08T06:13:45;262.20;;;243.57;;
51838;SDS011;37886;53.174;6.368;2023-07-08T06:16:10;281.20;;;261.67;;
51838;SDS011;37886;53.174;6.368;2023-07-08T06:18:36;238.55;;;221.90;;
51838;SDS011;37886;53.174;6.368;2023-07-08T06:21:02;279.70;;;260.42;;
51838;SDS011;37886;53.174;6.368;2023-07-08T06:23:28;275.58;;;256.17;;
51838;SDS011;37886;53.174;6.368;2023-07-08T06:25:55;281.50;;;262.50;;
51838;SDS011;37886;53.174;6.368;2023-07-08T06:28:22;223.70;;;208.52;;
51838;SDS011;37886;53.174;6.368;2023-07-08T06:30:47;231.93;;;216.00;;
51838;SDS011;37886;53.174;6.368;2023-07-08T06:33:14;260.38;;;242.82;;
51838;SDS011;37886;53.174;6.368;2023-07-08T06:35:40;302.80;;;281.90;;
51838;SDS011;37886;53.174;6.368;2023-07-08T06:38:06;224.93;;;209.55;;
51838;SDS011;37886;53.174;6.368;2023-07-08T06:40:33;239.65;;;223.38;;
51838;SDS011;37886;53.174;6.368;2023-07-08T06:42:59;240.77;;;224.50;;
51838;SDS011;37886;53.174;6.368;2023-07-08T06:45:25;297.55;;;276.98;;
51838;SDS011;37886;53.174;6.368;2023-07-08T06:47:51;251.00;;;233.57;;
51838;SDS011;37886;53.174;6.368;2023-07-08T06:50:16;217.93;;;202.45;;
51838;SDS011;37886;53.174;6.368;2023-07-08T06:52:42;284.20;;;264.00;;
51838;SDS011;37886;53.174;6.368;2023-07-08T06:55:08;265.88;;;248.07;;
51838;SDS011;37886;53.174;6.368;2023-07-08T06:57:35;298.55;;;278.33;;
51838;SDS011;37886;53.174;6.368;2023-07-08T07:00:03;294.77;;;274.70;;
51838;SDS011;37886;53.174;6.368;2023-07-08T07:02:33;270.40;;;251.60;;
51838;SDS011;37886;53.174;6.368;2023-07-08T07:04:59;281.63;;;262.98;;
51838;SDS011;37886;53.174;6.368;2023-07-08T07:07:28;280.95;;;260.98;;
51838;SDS011;37886;53.174;6.368;2023-07-08T07:09:54;299.92;;;278.92;;
51838;SDS011;37886;53.174;6.368;2023-07-08T07:12:20;269.25;;;251.20;;
51838;SDS011;37886;53.174;6.368;2023-07-08T07:14:53;273.15;;;254.88;;
51838;SDS011;37886;53.174;6.368;2023-07-08T07:17:20;285.38;;;266.17;;
51838;SDS011;37886;53.174;6.368;2023-07-08T07:19:46;202.27;;;188.25;;
51838;SDS011;37886;53.174;6.368;2023-07-08T07:22:13;260.65;;;242.90;;
51838;SDS011;37886;53.174;6.368;2023-07-08T07:24:39;285.20;;;265.83;;
51838;SDS011;37886;53.174;6.368;2023-07-08T07:27:04;284.70;;;265.48;;
51838;SDS011;37886;53.174;6.368;2023-07-08T07:29:38;293.30;;;273.33;;
51838;SDS011;37886;53.174;6.368;2023-07-08T07:32:15;307.95;;;285.45;;
51838;SDS011;37886;53.174;6.368;2023-07-08T07:34:42;254.05;;;236.45;;
51838;SDS011;37886;53.174;6.368;2023-07-08T07:37:11;240.90;;;224.25;;
51838;SDS011;37886;53.174;6.368;2023-07-08T07:39:39;290.77;;;270.63;;
51838;SDS011;37886;53.174;6.368;2023-07-08T07:42:05;310.30;;;288.95;;
51838;SDS011;37886;53.174;6.368;2023-07-08T07:44:31;309.35;;;288.15;;
51838;SDS011;37886;53.174;6.368;2023-07-08T07:46:59;325.33;;;301.30;;
51838;SDS011;37886;53.174;6.368;2023-07-08T07:49:25;306.42;;;285.08;;
51838;SDS011;37886;53.174;6.368;2023-07-08T07:51:50;298.75;;;278.02;;
51838;SDS011;37886;53.174;6.368;2023-07-08T07:54:16;294.48;;;274.20;;
51838;SDS011;37886;53.174;6.368;2023-07-08T07:56:42;302.58;;;281.88;;
51838;SDS011;37886;53.174;6.368;2023-07-08T07:59:07;298.38;;;277.25;;
51838;SDS011;37886;53.174;6.368;2023-07-08T08:01:33;290.48;;;269.88;;
51838;SDS011;37886;53.174;6.368;2023-07-08T08:03:59;283.13;;;262.73;;
51838;SDS011;37886;53.174;6.368;2023-07-08T08:06:25;328.10;;;304.67;;
51838;SDS011;37886;53.174;6.368;2023-07-08T08:08:50;299.92;;;278.90;;
51838;SDS011;37886;53.174;6.368;2023-07-08T08:11:16;320.10;;;297.63;;
51838;SDS011;37886;53.174;6.368;2023-07-08T08:13:42;314.80;;;292.40;;
51838;SDS011;37886;53.174;6.368;2023-07-08T08:16:08;331.98;;;306.25;;
51838;SDS011;37886;53.174;6.368;2023-07-08T08:18:33;329.63;;;305.65;;
51838;SDS011;37886;53.174;6.368;2023-07-08T08:20:59;296.33;;;273.75;;
51838;SDS011;37886;53.174;6.368;2023-07-08T08:23:25;311.88;;;288.75;;
51838;SDS011;37886;53.174;6.368;2023-07-08T08:25:51;292.55;;;270.05;;
51838;SDS011;37886;53.174;6.368;2023-07-08T08:28:17;314.10;;;288.63;;
51838;SDS011;37886;53.174;6.368;2023-07-08T08:30:47;342.08;;;316.30;;
51838;SDS011;37886;53.174;6.368;2023-07-08T08:33:17;378.17;;;348.00;;
51838;SDS011;37886;53.174;6.368;2023-07-08T08:35:43;357.25;;;326.77;;
51838;SDS011;37886;53.174;6.368;2023-07-08T08:38:09;307.55;;;281.80;;
51838;SDS011;37886;53.174;6.368;2023-07-08T08:40:35;317.55;;;292.73;;
51838;SDS011;37886;53.174;6.368;2023-07-08T08:45:50;345.50;;;319.73;;
51838;SDS011;37886;53.174;6.368;2023-07-08T08:48:26;362.27;;;336.48;;
51838;SDS011;37886;53.174;6.368;2023-07-08T08:50:55;157.57;;;146.40;;
51838;SDS011;37886;53.174;6.368;2023-07-08T08:53:29;103.65;;;96.50;;
51838;SDS011;37886;53.174;6.368;2023-07-08T08:56:15;127.55;;;119.00;;
51838;SDS011;37886;53.174;6.368;2023-07-08T08:59:03;159.95;;;149.00;;
51838;SDS011;37886;53.174;6.368;2023-07-08T09:01:34;204.68;;;189.82;;
51838;SDS011;37886;53.174;6.368;2023-07-08T09:06:29;347.27;;;321.98;;
51838;SDS011;37886;53.174;6.368;2023-07-08T09:09:00;184.75;;;171.88;;
51838;SDS011;37886;53.174;6.368;2023-07-08T09:14:19;195.57;;;181.80;;
51838;SDS011;37886;53.174;6.368;2023-07-08T09:23:15;245.57;;;228.93;;
51838;SDS011;37886;53.174;6.368;2023-07-08T09:25:47;216.40;;;200.80;;
51838;SDS011;37886;53.174;6.368;2023-07-08T09:28:38;255.93;;;237.02;;
51838;SDS011;37886;53.174;6.368;2023-07-08T09:31:06;302.52;;;280.85;;
51838;SDS011;37886;53.174;6.368;2023-07-08T09:33:33;259.90;;;241.20;;
51838;SDS011;37886;53.174;6.368;2023-07-08T09:36:04;269.13;;;249.90;;
51838;SDS011;37886;53.174;6.368;2023-07-08T09:38:43;288.60;;;267.80;;
51838;SDS011;37886;53.174;6.368;2023-07-08T09:41:12;284.83;;;264.50;;
51838;SDS011;37886;53.174;6.368;2023-07-08T09:43:38;289.95;;;268.88;;
51838;SDS011;37886;53.174;6.368;2023-07-08T09:46:04;213.45;;;197.43;;
51838;SDS011;37886;53.174;6.368;2023-07-08T09:48:33;248.85;;;230.38;;
51838;SDS011;37886;53.174;6.368;2023-07-08T09:51:01;299.63;;;278.50;;
51838;SDS011;37886;53.174;6.368;2023-07-08T09:53:27;234.50;;;218.15;;
51838;SDS011;37886;53.174;6.368;2023-07-08T09:55:54;300.63;;;278.83;;
51838;SDS011;37886;53.174;6.368;2023-07-08T09:58:24;270.10;;;250.38;;
51838;SDS011;37886;53.174;6.368;2023-07-08T10:00:53;290.02;;;269.42;;
51838;SDS011;37886;53.174;6.368;2023-07-08T10:03:22;204.55;;;187.88;;
51838;SDS011;37886;53.174;6.368;2023-07-08T10:05:49;236.15;;;218.63;;
51838;SDS011;37886;53.174;6.368;2023-07-08T10:08:18;204.27;;;188.85;;
51838;SDS011;37886;53.174;6.368;2023-07-08T10:10:47;209.13;;;192.70;;
51838;SDS011;37886;53.174;6.368;2023-07-08T10:16:26;210.95;;;193.85;;
51838;SDS011;37886;53.174;6.368;2023-07-08T10:18:54;184.48;;;169.85;;
51838;SDS011;37886;53.174;6.368;2023-07-08T10:26:42;159.48;;;147.40;;
51838;SDS011;37886;53.174;6.368;2023-07-08T10:37:30;144.15;;;133.95;;
51838;SDS011;37886;53.174;6.368;2023-07-08T10:45:23;135.45;;;125.85;;
51838;SDS011;37886;53.174;6.368;2023-07-08T11:09:49;219.55;;;204.45;;
51838;SDS011;37886;53.174;6.368;2023-07-08T11:21:04;136.38;;;127.53;;
51838;SDS011;37886;53.174;6.368;2023-07-08T11:23:42;257.90;;;241.05;;
51838;SDS011;37886;53.174;6.368;2023-07-08T11:26:18;130.95;;;122.25;;
51838;SDS011;37886;53.174;6.368;2023-07-08T11:28:48;215.68;;;201.73;;
51838;SDS011;37886;53.174;6.368;2023-07-08T11:31:17;193.07;;;180.30;;
51838;SDS011;37886;53.174;6.368;2023-07-08T11:33:45;164.23;;;153.02;;
51838;SDS011;37886;53.174;6.368;2023-07-08T11:36:11;166.73;;;155.80;;
51838;SDS011;37886;53.174;6.368;2023-07-08T11:38:47;68.30;;;63.70;;
51838;SDS011;37886;53.174;6.368;2023-07-08T11:41:26;114.32;;;106.72;;
51838;SDS011;37886;53.174;6.368;2023-07-08T11:43:57;105.90;;;98.75;;
51838;SDS011;37886;53.174;6.368;2023-07-08T11:46:25;178.65;;;166.93;;
51838;SDS011;37886;53.174;6.368;2023-07-08T11:48:59;117.75;;;109.88;;
51838;SDS011;37886;53.174;6.368;2023-07-08T11:51:35;73.10;;;68.07;;
51838;SDS011;37886;53.174;6.368;2023-07-08T11:54:19;155.40;;;144.82;;
51838;SDS011;37886;53.174;6.368;2023-07-08T11:57:14;113.57;;;105.70;;
51838;SDS011;37886;53.174;6.368;2023-07-08T11:59:57;167.05;;;155.52;;
51838;SDS011;37886;53.174;6.368;2023-07-08T12:02:47;113.50;;;105.57;;
51838;SDS011;37886;53.174;6.368;2023-07-08T12:05:14;98.82;;;92.30;;
51838;SDS011;37886;53.174;6.368;2023-07-08T12:07:41;90.32;;;84.28;;
51838;SDS011;37886;53.174;6.368;2023-07-08T12:10:11;72.47;;;67.47;;
51838;SDS011;37886;53.174;6.368;2023-07-08T12:12:48;71.45;;;66.93;;
51838;SDS011;37886;53.174;6.368;2023-07-08T12:15:16;95.15;;;89.13;;
51838;SDS011;37886;53.174;6.368;2023-07-08T12:17:45;89.78;;;83.82;;
51838;SDS011;37886;53.174;6.368;2023-07-08T12:20:20;110.63;;;103.55;;
51838;SDS011;37886;53.174;6.368;2023-07-08T12:22:54;148.15;;;138.95;;
51838;SDS011;37886;53.174;6.368;2023-07-08T12:25:22;102.03;;;95.25;;
51838;SDS011;37886;53.174;6.368;2023-07-08T12:27:52;127.32;;;119.05;;
51838;SDS011;37886;53.174;6.368;2023-07-08T12:30:18;142.10;;;132.93;;
51838;SDS011;37886;53.174;6.368;2023-07-08T12:32:44;183.88;;;172.27;;
51838;SDS011;37886;53.174;6.368;2023-07-08T12:35:32;152.98;;;143.55;;
51838;SDS011;37886;53.174;6.368;2023-07-08T12:37:59;200.68;;;187.98;;
51838;SDS011;37886;53.174;6.368;2023-07-08T12:40:28;118.28;;;111.00;;
51838;SDS011;37886;53.174;6.368;2023-07-08T12:42:55;216.63;;;202.57;;
51838;SDS011;37886;53.174;6.368;2023-07-08T12:45:25;139.77;;;130.18;;
51838;SDS011;37886;53.174;6.368;2023-07-08T12:47:51;153.20;;;143.25;;
51838;SDS011;37886;53.174;6.368;2023-07-08T12:50:17;156.88;;;146.65;;
51838;SDS011;37886;53.174;6.368;2023-07-08T12:52:44;204.90;;;191.63;;
51838;SDS011;37886;53.174;6.368;2023-07-08T12:55:11;132.80;;;124.35;;
51838;SDS011;37886;53.174;6.368;2023-07-08T12:57:42;195.65;;;183.30;;
51838;SDS011;37886;53.174;6.368;2023-07-08T13:00:30;134.80;;;125.88;;
51838;SDS011;37886;53.174;6.368;2023-07-08T13:03:08;123.28;;;115.28;;
51838;SDS011;37886;53.174;6.368;2023-07-08T13:05:42;189.40;;;176.93;;
51838;SDS011;37886;53.174;6.368;2023-07-08T13:08:13;185.82;;;173.00;;
51838;SDS011;37886;53.174;6.368;2023-07-08T13:10:40;183.98;;;171.38;;
51838;SDS011;37886;53.174;6.368;2023-07-08T13:15:44;200.85;;;187.75;;
51838;SDS011;37886;53.174;6.368;2023-07-08T13:20:40;136.45;;;127.20;;
51838;SDS011;37886;53.174;6.368;2023-07-08T13:23:08;44.92;;;41.65;;
51838;SDS011;37886;53.174;6.368;2023-07-08T13:25:36;117.40;;;108.97;;
51838;SDS011;37886;53.174;6.368;2023-07-08T13:28:14;112.05;;;104.05;;
51838;SDS011;37886;53.174;6.368;2023-07-08T13:30:51;173.23;;;161.45;;
51838;SDS011;37886;53.174;6.368;2023-07-08T13:33:33;156.18;;;145.65;;
51838;SDS011;37886;53.174;6.368;2023-07-08T13:36:03;88.43;;;82.18;;
51838;SDS011;37886;53.174;6.368;2023-07-08T13:38:37;64.50;;;59.65;;
51838;SDS011;37886;53.174;6.368;2023-07-08T13:41:04;191.38;;;178.23;;
51838;SDS011;37886;53.174;6.368;2023-07-08T13:43:32;139.38;;;129.82;;
51838;SDS011;37886;53.174;6.368;2023-07-08T13:46:00;56.47;;;52.38;;
51838;SDS011;37886;53.174;6.368;2023-07-08T13:48:33;83.57;;;77.68;;
51838;SDS011;37886;53.174;6.368;2023-07-08T13:53:49;109.63;;;101.95;;
51838;SDS011;37886;53.174;6.368;2023-07-08T13:58:46;51.30;;;47.17;;
51838;SDS011;37886;53.174;6.368;2023-07-08T14:01:23;40.97;;;37.92;;
51838;SDS011;37886;53.174;6.368;2023-07-08T14:03:51;75.05;;;69.70;;
51838;SDS011;37886;53.174;6.368;2023-07-08T14:06:19;202.60;;;189.02;;
51838;SDS011;37886;53.174;6.368;2023-07-08T14:08:54;125.00;;;116.28;;
51838;SDS011;37886;53.174;6.368;2023-07-08T14:11:22;58.53;;;54.15;;
51838;SDS011;37886;53.174;6.368;2023-07-08T14:13:47;54.20;;;49.97;;
51838;SDS011;37886;53.174;6.368;2023-07-08T14:16:22;93.00;;;86.15;;
51838;SDS011;37886;53.174;6.368;2023-07-08T14:18:59;51.00;;;47.60;;
51838;SDS011;37886;53.174;6.368;2023-07-08T14:21:30;45.97;;;42.58;;
51838;SDS011;37886;53.174;6.368;2023-07-08T14:23:58;40.35;;;37.55;;
51838;SDS011;37886;53.174;6.368;2023-07-08T14:26:28;55.10;;;50.97;;
51838;SDS011;37886;53.174;6.368;2023-07-08T14:28:54;121.45;;;112.85;;
51838;SDS011;37886;53.174;6.368;2023-07-08T14:31:22;50.05;;;46.63;;
51838;SDS011;37886;53.174;6.368;2023-07-08T14:33:51;53.15;;;49.38;;
51838;SDS011;37886;53.174;6.368;2023-07-08T14:36:27;46.30;;;42.75;;
51838;SDS011;37886;53.174;6.368;2023-07-08T14:38:53;49.17;;;45.40;;
51838;SDS011;37886;53.174;6.368;2023-07-08T14:41:19;65.40;;;60.45;;
51838;SDS011;37886;53.174;6.368;2023-07-08T14:43:44;58.92;;;54.72;;
51838;SDS011;37886;53.174;6.368;2023-07-08T14:46:10;68.07;;;63.58;;
51838;SDS011;37886;53.174;6.368;2023-07-08T14:48:36;57.88;;;54.03;;
51838;SDS011;37886;53.174;6.368;2023-07-08T14:51:02;85.80;;;79.95;;
51838;SDS011;37886;53.174;6.368;2023-07-08T14:53:27;150.50;;;140.20;;
51838;SDS011;37886;53.174;6.368;2023-07-08T14:55:53;142.43;;;132.38;;
51838;SDS011;37886;53.174;6.368;2023-07-08T14:58:32;89.90;;;83.75;;
51838;SDS011;37886;53.174;6.368;2023-07-08T15:01:01;146.35;;;136.57;;
51838;SDS011;37886;53.174;6.368;2023-07-08T15:03:36;160.82;;;150.02;;
51838;SDS011;37886;53.174;6.368;2023-07-08T15:06:01;99.60;;;92.93;;
51838;SDS011;37886;53.174;6.368;2023-07-08T15:08:27;142.88;;;133.32;;
51838;SDS011;37886;53.174;6.368;2023-07-08T15:10:53;132.43;;;123.63;;
51838;SDS011;37886;53.174;6.368;2023-07-08T15:13:19;107.43;;;100.28;;
51838;SDS011;37886;53.174;6.368;2023-07-08T15:15:49;201.48;;;188.68;;
51838;SDS011;37886;53.174;6.368;2023-07-08T15:18:16;184.23;;;172.63;;
51838;SDS011;37886;53.174;6.368;2023-07-08T15:20:44;184.07;;;172.00;;
51838;SDS011;37886;53.174;6.368;2023-07-08T15:23:10;140.13;;;130.85;;
51838;SDS011;37886;53.174;6.368;2023-07-08T15:25:37;153.93;;;143.52;;
51838;SDS011;37886;53.174;6.368;2023-07-08T15:28:14;116.10;;;108.35;;
51838;SDS011;37886;53.174;6.368;2023-07-08T15:30:44;147.48;;;137.98;;
51838;SDS011;37886;53.174;6.368;2023-07-08T15:33:12;116.78;;;109.13;;